createdAt,value
2023-05-19T00:23:02.050Z,12.2
2023-05-19T00:52:11.052Z,11.9
2023-05-19T01:21:22.166Z,11.7
2023-05-19T01:50:33.023Z,11.4
2023-05-19T02:19:23.397Z,11
2023-05-19T02:48:23.881Z,10.9
2023-05-19T03:17:29.844Z,10.7
2023-05-19T03:46:25.999Z,10.6
2023-05-19T04:15:29.265Z,10.5
2023-05-19T04:44:36.895Z,10.4
2023-05-19T05:13:42.374Z,10.4
2023-05-19T05:42:50.486Z,10.4
2023-05-19T06:11:52.039Z,10.8
2023-05-19T06:41:03.462Z,12.1
2023-05-19T07:10:17.619Z,12.8
2023-05-19T07:39:43.574Z,14.1
2023-05-19T08:09:10.381Z,15.4
2023-05-19T08:38:09.934Z,16.2
2023-05-19T09:07:26.224Z,16.7
2023-05-19T09:36:36.048Z,16.7
2023-05-19T10:05:51.908Z,17.1
2023-05-19T10:35:08.876Z,17.5
2023-05-19T11:04:29.768Z,17.7
2023-05-19T11:33:47.336Z,17.9
2023-05-19T12:03:11.641Z,18.1
2023-05-19T12:32:22.916Z,18
2023-05-19T13:01:31.764Z,18.1
2023-05-19T13:30:34.852Z,18.3
2023-05-19T13:59:29.606Z,18.4
2023-05-19T14:28:38.635Z,18.3
2023-05-19T14:57:51.714Z,18.2
2023-05-19T15:27:05.241Z,18.1
2023-05-19T15:56:18.376Z,17.9
2023-05-19T16:25:35.622Z,17.5
2023-05-19T16:54:42.712Z,16.9
2023-05-19T17:23:57.360Z,16.5
2023-05-19T17:53:10.150Z,16.4
2023-05-19T18:22:24.260Z,16
2023-05-19T18:51:44.856Z,15.6
2023-05-19T19:21:04.089Z,15.3
2023-05-19T19:50:21.813Z,15
2023-05-19T20:19:33.300Z,14.8
2023-05-19T20:48:28.569Z,14.4
2023-05-19T21:17:39.220Z,14.1
2023-05-19T21:46:42.932Z,13.8
2023-05-19T22:15:39.816Z,13.6
2023-05-19T22:44:40.961Z,13.5
2023-05-19T23:13:44.005Z,13.3
2023-05-19T23:42:46.421Z,13.2
